BAW340E EGLL-LFMN
Flight info
| Callsign | BAW340E |
|---|---|
| Flight time | N/A |
| Altitude | 33000 |
| Route | MAXIT Y803 MID UL612 VEULE DCT KOTAP DCT KETEX DCT KOTIS DCT KUKOR DCT UTUVA DCT LERGA DCT LIQID DCT LATAM DCT TUNUR DCT NISAR |
| Aircraft | A21N/M-SDE3FGHIRWY/LB1 |
Departure
| Time | N/A |
|---|---|
| Airport | London Heathrow Airport (EGLL) |
Arrival
| Time | 2026-05-03 20:19 |
|---|---|
| Airport | Nice-Côte d'Azur Airport (LFMN) |
| Time | Latitude | Longitude | Altitude | Speed | Heading |
|---|---|---|---|---|---|
| 2026-05-03 20:15 | 43.54394 | 7.05627 | 2928 ft | 182 kts | 46° |
| 2026-05-03 20:15 | 43.55267 | 7.06830 | 2677 ft | 169 kts | 46° |
| 2026-05-03 20:15 | 43.56078 | 7.07944 | 2471 ft | 159 kts | 46° |
| 2026-05-03 20:15 | 43.56852 | 7.09012 | 2281 ft | 158 kts | 47° |
| 2026-05-03 20:16 | 43.57634 | 7.10095 | 2093 ft | 158 kts | 48° |
| 2026-05-03 20:16 | 43.58406 | 7.11162 | 1913 ft | 158 kts | 47° |
| 2026-05-03 20:16 | 43.59186 | 7.12221 | 1702 ft | 157 kts | 47° |
| 2026-05-03 20:16 | 43.59972 | 7.13274 | 1487 ft | 156 kts | 46° |
| 2026-05-03 20:17 | 43.60743 | 7.14316 | 1261 ft | 155 kts | 48° |
| 2026-05-03 20:17 | 43.61517 | 7.15369 | 1039 ft | 155 kts | 46° |
| 2026-05-03 20:17 | 43.62280 | 7.16417 | 836 ft | 154 kts | 47° |
| 2026-05-03 20:17 | 43.63041 | 7.17462 | 644 ft | 154 kts | 46° |
| 2026-05-03 20:18 | 43.63790 | 7.18505 | 435 ft | 153 kts | 45° |
| 2026-05-03 20:18 | 43.64554 | 7.19544 | 231 ft | 153 kts | 46° |
| 2026-05-03 20:18 | 43.65301 | 7.20568 | 43 ft | 151 kts | 46° |
| 2026-05-03 20:18 | 43.65912 | 7.21412 | 26 ft | 81 kts | 44° |
| 2026-05-03 20:19 | 43.66139 | 7.21723 | 26 ft | 18 kts | 45° |
| 2026-05-03 20:19 | 43.66230 | 7.21734 | 27 ft | 14 kts | 317° |
| 2026-05-03 20:19 | 43.66278 | 7.21668 | 28 ft | 7 kts | 315° |
| 2026-05-03 20:19 | 43.66320 | 7.21611 | 28 ft | 8 kts | 315° |
| 2026-05-03 20:20 | 43.66362 | 7.21553 | 29 ft | 8 kts | 314° |
| 2026-05-03 20:20 | 43.66372 | 7.21483 | 29 ft | 8 kts | 251° |
| 2026-05-03 20:20 | 43.66358 | 7.21397 | 30 ft | 10 kts | 260° |
| 2026-05-03 20:20 | 43.66345 | 7.21281 | 30 ft | 13 kts | 260° |
| 2026-05-03 20:21 | 43.66332 | 7.21178 | 30 ft | 4 kts | 261° |
| 2026-05-03 20:21 | 43.66328 | 7.21142 | 31 ft | 3 kts | 260° |
| 2026-05-03 20:21 | 43.66324 | 7.21102 | 31 ft | 5 kts | 259° |
| 2026-05-03 20:21 | 43.66317 | 7.21055 | 31 ft | 3 kts | 262° |
| 2026-05-03 20:22 | 43.66326 | 7.21038 | 31 ft | 0 kts | 339° |
| 2026-05-03 20:22 | 43.66342 | 7.21031 | 31 ft | 5 kts | 345° |
| 2026-05-03 20:22 | 43.66377 | 7.21022 | 32 ft | 3 kts | 351° |
| 2026-05-03 20:22 | 43.66394 | 7.21018 | 32 ft | 0 kts | 351° |